Time;durP1;ratioP1;P1;durP2;ratioP2;P2;SDS_P1;SDS_P2;PMS_P1;PMS_P2;Temp;Humidity;BMP_temperature;BMP_pressure;BME280_temperature;BME280_humidity;BME280_pressure;Samples;Min_cycle;Max_cycle;Signal;HPM_P1;HPM_P2
2022/01/31 00:00:47;;;;;;;30.65;8.60;;;5.70;99.90;;;;;;5017227;28;20022;-72
2022/01/31 00:03:12;;;;;;;36.53;9.25;;;5.70;99.90;;;;;;5011690;28;20112;-72
2022/01/31 00:05:38;;;;;;;36.55;9.45;;;5.70;99.90;;;;;;5033181;28;20419;-73
2022/01/31 00:08:04;;;;;;;29.48;9.57;;;5.70;99.90;;;;;;5032966;28;20025;-73
2022/01/31 00:10:31;;;;;;;34.90;10.50;;;5.60;99.90;;;;;;5032720;28;20490;-73
2022/01/31 00:13:06;;;;;;;32.08;10.30;;;5.60;99.90;;;;;;5032619;28;20026;-74
2022/01/31 00:15:37;;;;;;;29.63;10.05;;;5.60;99.90;;;;;;5032894;28;20306;-73
2022/01/31 00:18:03;;;;;;;34.78;11.27;;;5.60;99.90;;;;;;5032466;28;20029;-73
2022/01/31 00:20:28;;;;;;;32.30;11.25;;;5.60;99.90;;;;;;5014700;28;20056;-73
2022/01/31 00:22:54;;;;;;;38.38;11.68;;;5.60;99.90;;;;;;5032601;28;20151;-73
2022/01/31 00:25:19;;;;;;;32.85;12.25;;;5.60;99.90;;;;;;5032308;28;20022;-74
2022/01/31 00:27:47;;;;;;;37.20;12.30;;;5.60;99.90;;;;;;5032488;28;20504;-72
2022/01/31 00:30:13;;;;;;;34.10;13.20;;;5.60;99.90;;;;;;5032691;28;20029;-73
2022/01/31 00:32:39;;;;;;;36.33;11.18;;;5.60;99.90;;;;;;5032507;28;20313;-74
2022/01/31 00:35:05;;;;;;;34.30;11.88;;;5.60;99.90;;;;;;5032282;28;20289;-72
2022/01/31 00:37:31;;;;;;;41.92;12.00;;;5.60;99.90;;;;;;5032350;28;20084;-73
2022/01/31 00:39:56;;;;;;;38.97;11.15;;;5.60;99.90;;;;;;5026018;28;20036;-73
2022/01/31 00:42:24;;;;;;;32.03;10.52;;;5.60;99.90;;;;;;5031810;28;20546;-73
2022/01/31 00:45:00;;;;;;;36.13;9.43;;;5.60;99.90;;;;;;5029048;28;20340;-72
2022/01/31 00:47:29;;;;;;;39.78;10.10;;;5.70;99.90;;;;;;5020830;28;20028;-74
2022/01/31 00:50:06;;;;;;;40.25;9.60;;;5.70;99.90;;;;;;5031845;28;20493;-73
2022/01/31 00:52:32;;;;;;;35.45;10.18;;;5.70;99.90;;;;;;5016782;28;20026;-74
2022/01/31 00:54:58;;;;;;;34.22;8.88;;;5.70;99.90;;;;;;5012202;28;20022;-74
2022/01/31 00:57:24;;;;;;;31.60;7.75;;;5.70;99.90;;;;;;5012354;28;20026;-73
2022/01/31 00:59:51;;;;;;;30.85;7.47;;;5.70;99.90;;;;;;5012080;28;20100;-73
2022/01/31 01:02:21;;;;;;;30.23;7.70;;;5.80;99.90;;;;;;5025596;28;20026;-72
2022/01/31 01:04:47;;;;;;;24.80;7.22;;;5.80;99.90;;;;;;5013767;28;20072;-72
2022/01/31 01:07:14;;;;;;;32.25;7.05;;;5.80;99.90;;;;;;5019220;28;20407;-72
2022/01/31 01:09:46;;;;;;;26.92;7.43;;;5.80;99.90;;;;;;5020360;28;20439;-73
2022/01/31 01:12:13;;;;;;;29.10;7.07;;;5.90;99.90;;;;;;5028385;28;20033;-72
2022/01/31 01:14:39;;;;;;;26.00;6.90;;;5.90;99.90;;;;;;5031343;28;20064;-72
2022/01/31 01:17:05;;;;;;;21.05;5.70;;;5.90;99.90;;;;;;5017601;28;20132;-73
2022/01/31 01:19:30;;;;;;;23.58;6.63;;;6.00;99.90;;;;;;5018506;28;20478;-73
2022/01/31 01:21:56;;;;;;;20.55;6.43;;;6.00;99.90;;;;;;5030702;28;20052;-73
2022/01/31 01:24:22;;;;;;;20.13;5.93;;;6.00;99.90;;;;;;5027210;28;20498;-73
2022/01/31 01:26:48;;;;;;;21.35;5.75;;;6.10;99.90;;;;;;5012332;28;20042;-73
2022/01/31 01:29:15;;;;;;;22.60;5.63;;;6.10;99.90;;;;;;5017216;28;20024;-73
2022/01/31 01:31:40;;;;;;;20.23;5.78;;;6.20;99.90;;;;;;5030981;28;20426;-74
2022/01/31 01:34:06;;;;;;;25.60;5.30;;;6.20;99.90;;;;;;5030947;28;20112;-72
2022/01/31 01:36:32;;;;;;;34.00;6.38;;;6.30;99.90;;;;;;5030642;28;20053;-73
2022/01/31 01:38:58;;;;;;;33.40;6.50;;;6.40;99.90;;;;;;5020157;28;20060;-73
2022/01/31 01:41:25;;;;;;;32.15;6.32;;;6.50;99.90;;;;;;5044064;22;20065;-74
2022/01/31 01:43:50;;;;;;;43.67;6.95;;;6.60;99.90;;;;;;5040791;28;20021;-74
2022/01/31 01:46:16;;;;;;;39.20;7.05;;;6.70;99.90;;;;;;5035529;28;20505;-75
2022/01/31 01:48:41;;;;;;;37.90;5.90;;;6.80;99.90;;;;;;5035161;28;20060;-73
2022/01/31 01:51:07;;;;;;;34.65;5.28;;;6.90;99.90;;;;;;5050275;28;20035;-74
2022/01/31 01:53:33;;;;;;;37.50;5.10;;;7.00;99.90;;;;;;5043194;28;20463;-74
2022/01/31 01:55:59;;;;;;;39.53;5.68;;;7.10;99.90;;;;;;5039749;28;20025;-74
2022/01/31 01:58:29;;;;;;;34.75;5.35;;;7.10;99.90;;;;;;5040718;28;20453;-74
2022/01/31 02:01:02;;;;;;;27.45;5.13;;;7.20;99.90;;;;;;5030491;28;20128;-74
2022/01/31 02:03:29;;;;;;;38.00;5.63;;;7.20;99.90;;;;;;5030423;28;20168;-74
2022/01/31 02:05:56;;;;;;;35.80;5.15;;;7.30;99.90;;;;;;5038991;28;20021;-74
2022/01/31 02:08:22;;;;;;;30.00;5.07;;;7.30;99.90;;;;;;5050614;28;20032;-74
2022/01/31 02:10:48;;;;;;;31.20;5.65;;;7.40;99.90;;;;;;5050239;28;20363;-74
2022/01/31 02:13:16;;;;;;;24.23;5.00;;;7.40;99.90;;;;;;5050521;28;20040;-74
2022/01/31 02:15:48;;;;;;;24.35;4.10;;;7.40;99.90;;;;;;5050128;28;20450;-75
2022/01/31 02:18:15;;;;;;;27.50;4.65;;;7.40;99.90;;;;;;5050166;28;20033;-74
2022/01/31 02:20:41;;;;;;;27.65;4.35;;;7.40;99.90;;;;;;5031982;28;20074;-74
2022/01/31 02:23:09;;;;;;;29.23;4.40;;;7.40;99.90;;;;;;5049542;28;20484;-74
2022/01/31 02:26:04;;;;;;;27.83;4.32;;;7.40;99.90;;;;;;5048647;28;20053;-74
2022/01/31 02:28:34;;;;;;;30.05;4.40;;;7.40;99.90;;;;;;5042744;28;20088;-74
2022/01/31 02:31:00;;;;;;;20.25;4.30;;;7.40;99.90;;;;;;5030391;28;20045;-74
2022/01/31 02:33:27;;;;;;;32.25;5.38;;;7.40;99.90;;;;;;5037142;28;20056;-74
2022/01/31 02:35:55;;;;;;;37.15;4.88;;;7.40;99.90;;;;;;5049268;28;20104;-74
2022/01/31 02:38:22;;;;;;;24.90;3.78;;;7.40;99.90;;;;;;5049730;28;20096;-74
2022/01/31 02:40:48;;;;;;;21.90;3.33;;;7.40;99.90;;;;;;5047648;28;20048;-74
2022/01/31 02:43:22;;;;;;;24.45;3.92;;;7.40;99.90;;;;;;5049622;28;20100;-74
2022/01/31 02:45:48;;;;;;;30.55;3.97;;;7.30;99.90;;;;;;5049845;28;20079;-74
2022/01/31 02:48:16;;;;;;;16.55;3.20;;;7.30;99.90;;;;;;5040914;28;20494;-75
2022/01/31 02:50:41;;;;;;;26.05;3.65;;;7.30;99.90;;;;;;5029118;28;20036;-74
2022/01/31 02:53:21;;;;;;;21.27;4.28;;;7.30;99.90;;;;;;5048959;28;20376;-73
2022/01/31 02:55:47;;;;;;;18.58;3.25;;;7.40;99.90;;;;;;5031329;28;20026;-73
2022/01/31 02:58:14;;;;;;;22.60;3.53;;;7.30;99.90;;;;;;5029607;28;20021;-74
2022/01/31 03:00:40;;;;;;;21.20;3.38;;;7.30;99.90;;;;;;5029514;28;20354;-74
2022/01/31 03:03:06;;;;;;;26.10;3.55;;;7.30;99.90;;;;;;5036193;28;20359;-74
2022/01/31 03:05:32;;;;;;;22.27;3.22;;;7.30;99.90;;;;;;5048907;28;20024;-74
2022/01/31 03:07:58;;;;;;;23.05;3.30;;;7.30;99.90;;;;;;5031791;28;20090;-73
2022/01/31 03:10:24;;;;;;;21.17;3.88;;;7.30;99.90;;;;;;5029294;28;20021;-74
2022/01/31 03:12:49;;;;;;;19.42;3.15;;;7.30;99.90;;;;;;5029096;28;20034;-73
2022/01/31 03:15:15;;;;;;;19.92;3.53;;;7.30;99.90;;;;;;5029544;28;20406;-73
2022/01/31 03:17:46;;;;;;;23.90;3.38;;;7.30;99.90;;;;;;5029931;28;20037;-73
2022/01/31 03:20:12;;;;;;;18.83;3.05;;;7.20;99.90;;;;;;5029396;28;20168;-74
2022/01/31 03:22:37;;;;;;;28.77;3.75;;;7.20;99.90;;;;;;5029270;28;20072;-74
2022/01/31 03:25:03;;;;;;;20.50;2.92;;;7.30;99.90;;;;;;5011663;28;20021;-75
2022/01/31 03:27:29;;;;;;;22.17;3.60;;;7.30;99.90;;;;;;5042500;28;20587;-74
2022/01/31 03:29:54;;;;;;;20.50;2.78;;;7.20;99.90;;;;;;5025303;28;20441;-75
2022/01/31 03:32:20;;;;;;;21.33;3.25;;;7.20;99.90;;;;;;5049179;28;20419;-72
2022/01/31 03:34:45;;;;;;;23.67;3.50;;;7.30;99.90;;;;;;5048848;28;20036;-74
2022/01/31 03:37:11;;;;;;;16.65;3.50;;;7.30;99.90;;;;;;5048358;28;20112;-74
2022/01/31 03:39:36;;;;;;;27.63;3.53;;;7.20;99.90;;;;;;5049193;28;20025;-73
2022/01/31 03:42:02;;;;;;;26.05;3.53;;;7.30;99.90;;;;;;5047485;28;20053;-74
2022/01/31 03:44:29;;;;;;;18.35;3.08;;;7.30;99.90;;;;;;5048490;28;20527;-74
2022/01/31 03:46:56;;;;;;;23.73;3.78;;;7.20;99.90;;;;;;5048365;28;20462;-73
2022/01/31 03:49:21;;;;;;;23.60;3.20;;;7.20;99.90;;;;;;5034720;28;20474;-73
2022/01/31 03:51:47;;;;;;;20.27;3.33;;;7.20;99.90;;;;;;5028501;28;20037;-74
2022/01/31 03:54:12;;;;;;;20.33;3.55;;;7.20;99.90;;;;;;5028677;28;20036;-75
2022/01/31 03:56:39;;;;;;;22.77;3.20;;;7.20;99.90;;;;;;5033729;28;20026;-74
2022/01/31 03:59:05;;;;;;;24.05;3.60;;;7.20;99.90;;;;;;5029640;28;20025;-75
2022/01/31 04:01:30;;;;;;;21.30;2.95;;;7.20;99.90;;;;;;5029004;28;20113;-75
2022/01/31 04:03:56;;;;;;;24.63;2.78;;;7.20;99.90;;;;;;5028636;28;20096;-73
2022/01/31 04:06:26;;;;;;;21.50;2.90;;;7.20;99.90;;;;;;5028943;28;20133;-73
2022/01/31 04:08:52;;;;;;;18.02;3.20;;;7.20;99.90;;;;;;5028911;28;20025;-74
2022/01/31 04:11:17;;;;;;;28.02;3.45;;;7.20;99.90;;;;;;5029042;28;20079;-73
2022/01/31 04:13:43;;;;;;;27.85;4.00;;;7.30;99.90;;;;;;5030763;28;20029;-73
2022/01/31 04:16:09;;;;;;;24.15;4.05;;;7.30;99.90;;;;;;5032739;28;20063;-73
2022/01/31 04:18:34;;;;;;;23.02;3.55;;;7.30;99.90;;;;;;5032679;28;20072;-74
2022/01/31 04:21:00;;;;;;;22.08;3.50;;;7.30;99.90;;;;;;5014279;28;20029;-73
2022/01/31 04:23:28;;;;;;;21.15;3.05;;;7.30;99.90;;;;;;5032467;28;20017;-73
2022/01/31 04:26:01;;;;;;;21.48;2.80;;;7.30;99.90;;;;;;5032561;28;20331;-73
2022/01/31 04:28:32;;;;;;;18.52;2.78;;;7.30;99.90;;;;;;5032393;28;20034;-73
2022/01/31 04:31:11;;;;;;;18.65;3.42;;;7.40;99.90;;;;;;5032262;28;20335;-74
2022/01/31 04:33:37;;;;;;;23.23;3.00;;;7.40;99.90;;;;;;5035415;28;20406;-73
2022/01/31 04:36:03;;;;;;;19.17;3.10;;;7.40;99.90;;;;;;5041477;28;20410;-73
2022/01/31 04:38:29;;;;;;;22.73;3.33;;;7.40;99.90;;;;;;5034826;28;20105;-73
2022/01/31 04:40:54;;;;;;;22.77;2.78;;;7.40;99.90;;;;;;5035954;28;20049;-73
2022/01/31 04:43:20;;;;;;;27.02;2.95;;;7.50;99.90;;;;;;5031682;28;20103;-73
2022/01/31 04:45:47;;;;;;;16.90;2.40;;;7.50;99.90;;;;;;5038744;28;20363;-72
2022/01/31 04:48:14;;;;;;;24.70;3.28;;;7.50;99.90;;;;;;5050279;28;20067;-74
2022/01/31 04:50:40;;;;;;;23.25;3.03;;;7.50;99.90;;;;;;5041711;28;20029;-73
2022/01/31 04:53:05;;;;;;;18.13;3.00;;;7.50;99.90;;;;;;5028008;28;20034;-73
2022/01/31 04:55:31;;;;;;;20.58;3.08;;;7.40;99.90;;;;;;5018809;28;20022;-73
2022/01/31 04:57:57;;;;;;;27.48;3.47;;;7.40;99.90;;;;;;5019779;28;20402;-72
2022/01/31 05:00:23;;;;;;;22.35;3.03;;;7.40;99.90;;;;;;5049247;28;20057;-74
2022/01/31 05:02:48;;;;;;;21.50;3.47;;;7.30;99.90;;;;;;5036806;28;20052;-73
2022/01/31 05:05:14;;;;;;;21.77;3.00;;;7.30;99.90;;;;;;5033590;28;20025;-74
2022/01/31 05:07:40;;;;;;;22.38;2.85;;;7.20;99.90;;;;;;5049808;28;20500;-74
2022/01/31 05:10:06;;;;;;;20.23;3.00;;;7.10;99.90;;;;;;5037961;28;20396;-74
2022/01/31 05:12:31;;;;;;;21.85;3.67;;;7.10;99.90;;;;;;5019389;28;20470;-74
2022/01/31 05:14:57;;;;;;;23.58;3.83;;;7.10;99.90;;;;;;5041460;28;20033;-73
2022/01/31 05:17:22;;;;;;;23.15;3.03;;;7.10;99.90;;;;;;5032279;28;20034;-74
2022/01/31 05:19:48;;;;;;;23.25;3.65;;;7.10;99.90;;;;;;5046309;28;20029;-74
2022/01/31 05:22:14;;;;;;;28.33;3.97;;;7.20;99.90;;;;;;5038285;28;20435;-74
2022/01/31 05:24:39;;;;;;;25.52;4.35;;;7.20;99.90;;;;;;5036508;28;20025;-74
2022/01/31 05:27:05;;;;;;;20.83;3.58;;;7.20;99.90;;;;;;5037408;28;20336;-73
2022/01/31 05:29:31;;;;;;;24.67;3.97;;;7.20;99.90;;;;;;5036682;28;20470;-74
2022/01/31 05:31:56;;;;;;;23.30;3.10;;;7.20;99.90;;;;;;5031718;28;20033;-74
2022/01/31 05:34:24;;;;;;;19.00;3.33;;;7.20;99.90;;;;;;5031687;28;20025;-74
2022/01/31 05:36:54;;;;;;;28.02;3.53;;;7.20;99.90;;;;;;5031667;28;20040;-73
2022/01/31 05:39:21;;;;;;;24.55;3.33;;;7.20;99.90;;;;;;5043517;28;20036;-74
2022/01/31 05:41:46;;;;;;;27.15;4.15;;;7.20;99.90;;;;;;5042884;28;20071;-74
2022/01/31 05:44:12;;;;;;;26.42;3.60;;;7.20;99.90;;;;;;5031249;28;20029;-72
2022/01/31 05:46:37;;;;;;;29.35;3.65;;;7.30;99.90;;;;;;5030739;28;20029;-73
2022/01/31 05:49:03;;;;;;;32.65;4.00;;;7.30;99.90;;;;;;5030849;28;20355;-73
2022/01/31 05:51:29;;;;;;;26.10;4.10;;;7.30;99.90;;;;;;5003143;28;20040;-72
2022/01/31 05:53:54;;;;;;;27.42;3.78;;;7.30;99.90;;;;;;5011078;28;20038;-72
2022/01/31 05:56:20;;;;;;;39.10;4.65;;;7.30;99.90;;;;;;5010436;28;20026;-73
2022/01/31 05:58:46;;;;;;;30.75;4.18;;;7.20;99.90;;;;;;5010693;28;20137;-73
2022/01/31 06:01:12;;;;;;;27.33;4.65;;;7.20;99.90;;;;;;5010476;28;20104;-72
2022/01/31 06:03:38;;;;;;;27.23;3.45;;;7.10;99.90;;;;;;5025169;28;20407;-73
2022/01/31 06:06:04;;;;;;;27.05;4.10;;;7.10;99.90;;;;;;5015793;28;20439;-72
2022/01/31 06:08:29;;;;;;;26.95;4.18;;;7.20;99.90;;;;;;5013282;28;20037;-73
2022/01/31 06:10:55;;;;;;;30.20;4.40;;;7.20;99.90;;;;;;5016557;28;20041;-72
2022/01/31 06:13:24;;;;;;;29.33;3.95;;;7.20;99.90;;;;;;5027573;28;20149;-73
2022/01/31 06:15:50;;;;;;;26.95;4.32;;;7.20;99.90;;;;;;5032257;28;20018;-72
2022/01/31 06:18:16;;;;;;;26.67;3.80;;;7.20;99.90;;;;;;5030433;28;20446;-73
2022/01/31 06:20:44;;;;;;;39.30;4.45;;;7.30;99.90;;;;;;5020599;28;20053;-73
2022/01/31 06:23:10;;;;;;;26.83;4.15;;;7.30;99.90;;;;;;5010454;28;20570;-73
2022/01/31 06:25:36;;;;;;;28.50;4.13;;;7.30;99.90;;;;;;5010265;28;20030;-74
2022/01/31 06:28:04;;;;;;;25.52;3.63;;;7.30;99.90;;;;;;5026189;28;20030;-73
2022/01/31 06:30:30;;;;;;;26.35;4.15;;;7.30;99.90;;;;;;5014250;28;20091;-74
2022/01/31 06:32:56;;;;;;;34.88;3.97;;;7.30;99.90;;;;;;5019829;28;20466;-74
2022/01/31 06:35:21;;;;;;;24.98;4.07;;;7.30;99.90;;;;;;5017532;28;20037;-73
2022/01/31 06:37:47;;;;;;;27.17;3.90;;;7.30;99.90;;;;;;5020994;28;20470;-73
2022/01/31 06:40:13;;;;;;;29.73;4.00;;;7.30;99.90;;;;;;5013419;28;20700;-73
2022/01/31 06:42:38;;;;;;;39.35;5.40;;;7.40;99.90;;;;;;5021159;28;20061;-73
2022/01/31 06:45:05;;;;;;;31.73;5.32;;;7.40;99.90;;;;;;5023469;28;20033;-74
2022/01/31 06:47:31;;;;;;;31.00;3.97;;;7.30;99.90;;;;;;5043146;28;20328;-74
2022/01/31 06:49:58;;;;;;;32.72;4.30;;;7.30;99.90;;;;;;5050465;28;20056;-73
2022/01/31 06:52:24;;;;;;;26.27;4.57;;;7.30;99.90;;;;;;5031294;28;20072;-73
2022/01/31 06:54:51;;;;;;;35.90;4.60;;;7.20;99.90;;;;;;5009962;28;20122;-73
2022/01/31 06:57:18;;;;;;;36.13;4.50;;;7.20;99.90;;;;;;5014875;28;20017;-73
2022/01/31 06:59:44;;;;;;;31.92;4.50;;;7.10;99.90;;;;;;5025590;28;20145;-74
2022/01/31 07:02:10;;;;;;;35.88;4.53;;;7.10;99.90;;;;;;5011981;28;20564;-74
2022/01/31 07:04:36;;;;;;;33.42;4.35;;;7.00;99.90;;;;;;5012469;28;20093;-73
2022/01/31 07:07:03;;;;;;;36.67;5.57;;;7.00;99.90;;;;;;5014736;28;20029;-74
2022/01/31 07:09:28;;;;;;;29.15;4.97;;;7.00;99.90;;;;;;5020163;28;20026;-74
2022/01/31 07:11:58;;;;;;;34.97;4.80;;;6.90;99.90;;;;;;5028979;28;20490;-73
2022/01/31 07:14:30;;;;;;;40.15;4.68;;;6.90;99.90;;;;;;5029267;28;20071;-73
2022/01/31 07:16:56;;;;;;;36.35;4.65;;;7.00;99.90;;;;;;5042925;28;20053;-73
2022/01/31 07:19:26;;;;;;;30.55;4.25;;;6.90;99.90;;;;;;5030594;28;20029;-73
2022/01/31 07:21:51;;;;;;;33.80;4.85;;;6.90;99.90;;;;;;5049522;28;20033;-73
2022/01/31 07:26:47;;;;;;;37.58;4.97;;;6.90;99.90;;;;;;5026496;28;20029;-74
2022/01/31 07:29:12;;;;;;;31.17;5.00;;;6.90;99.90;;;;;;5022502;28;20433;-73
2022/01/31 07:31:39;;;;;;;33.42;5.22;;;6.90;99.90;;;;;;5018532;28;20139;-73
2022/01/31 07:34:07;;;;;;;32.53;4.80;;;6.90;99.90;;;;;;5019023;28;20025;-74
2022/01/31 07:36:33;;;;;;;31.05;4.55;;;6.90;99.90;;;;;;5014026;28;20030;-73
2022/01/31 07:38:59;;;;;;;35.92;4.38;;;7.00;99.90;;;;;;5019637;28;20133;-74
2022/01/31 07:41:24;;;;;;;34.97;4.47;;;7.00;99.90;;;;;;4999353;28;20050;-74
2022/01/31 07:43:50;;;;;;;35.90;4.15;;;7.10;99.90;;;;;;5011150;28;20029;-74
2022/01/31 07:46:16;;;;;;;31.30;4.68;;;7.20;99.90;;;;;;5021514;28;20080;-73
2022/01/31 07:48:41;;;;;;;32.83;4.70;;;7.20;99.90;;;;;;5021827;28;20055;-74
2022/01/31 07:51:11;;;;;;;36.05;5.35;;;7.20;99.90;;;;;;5016664;28;20041;-74
2022/01/31 07:53:39;;;;;;;43.50;5.82;;;7.20;99.90;;;;;;5019256;28;20475;-73
2022/01/31 07:56:09;;;;;;;28.50;4.43;;;7.30;99.90;;;;;;5018361;28;20336;-73
2022/01/31 07:58:36;;;;;;;31.08;5.13;;;7.30;99.90;;;;;;5042843;28;20466;-74
2022/01/31 08:01:04;;;;;;;34.47;5.28;;;7.30;99.90;;;;;;5041658;28;20067;-74
2022/01/31 08:03:30;;;;;;;37.17;5.30;;;7.30;99.90;;;;;;5049075;28;20046;-75
2022/01/31 08:05:55;;;;;;;36.33;4.75;;;7.30;99.90;;;;;;5035222;28;20087;-75
2022/01/31 08:08:21;;;;;;;39.55;5.38;;;7.30;99.90;;;;;;5018484;28;20048;-74
2022/01/31 08:10:46;;;;;;;36.15;5.38;;;7.30;99.90;;;;;;5038858;28;20475;-74
2022/01/31 08:13:13;;;;;;;40.25;5.32;;;7.30;99.90;;;;;;5052424;28;20029;-72
2022/01/31 08:16:00;;;;;;;37.88;5.82;;;7.30;99.90;;;;;;5047243;28;20025;-74
2022/01/31 08:18:25;;;;;;;35.60;4.80;;;7.30;99.90;;;;;;5044328;28;20382;-75
2022/01/31 08:20:51;;;;;;;38.72;5.53;;;7.20;99.90;;;;;;5052566;28;20021;-75
2022/01/31 08:23:17;;;;;;;36.47;5.13;;;7.10;99.90;;;;;;5052242;28;20056;-75
2022/01/31 08:25:47;;;;;;;43.20;6.07;;;7.00;99.90;;;;;;5034776;28;20492;-75
2022/01/31 08:28:13;;;;;;;41.13;5.32;;;6.90;99.90;;;;;;5037613;28;20060;-75
2022/01/31 08:30:51;;;;;;;38.95;6.05;;;6.90;99.90;;;;;;5051884;28;20080;-75
2022/01/31 08:33:34;;;;;;;36.78;4.45;;;6.90;99.90;;;;;;5046172;28;20045;-75
2022/01/31 08:36:02;;;;;;;32.95;4.72;;;6.90;99.90;;;;;;5025882;28;20043;-74
2022/01/31 08:38:27;;;;;;;35.20;5.25;;;7.00;99.90;;;;;;5038417;28;20029;-74
2022/01/31 08:40:53;;;;;;;37.38;5.43;;;7.00;99.90;;;;;;5016171;28;20445;-75
2022/01/31 08:43:20;;;;;;;42.70;5.22;;;7.00;99.90;;;;;;5022700;28;20029;-75
2022/01/31 08:45:45;;;;;;;37.00;5.13;;;7.00;99.90;;;;;;5017004;28;20017;-74
2022/01/31 08:48:11;;;;;;;37.75;5.78;;;7.10;99.90;;;;;;5024522;28;20102;-74
2022/01/31 08:50:37;;;;;;;40.75;5.25;;;7.10;99.90;;;;;;5031748;28;20049;-74
2022/01/31 08:53:04;;;;;;;50.38;6.20;;;7.10;99.90;;;;;;5032331;28;20104;-74
2022/01/31 08:55:29;;;;;;;40.67;5.75;;;7.10;99.90;;;;;;5050566;28;20324;-74
2022/01/31 08:57:57;;;;;;;40.13;5.88;;;7.10;99.90;;;;;;5031795;28;20061;-74
2022/01/31 09:00:34;;;;;;;39.53;5.97;;;7.10;99.90;;;;;;5035735;28;20065;-74
2022/01/31 09:03:20;;;;;;;37.15;5.50;;;7.10;99.90;;;;;;5039139;28;20370;-75
2022/01/31 09:05:45;;;;;;;45.97;6.47;;;7.10;99.90;;;;;;5021618;28;20038;-75
2022/01/31 09:08:11;;;;;;;49.15;6.18;;;7.10;99.90;;;;;;5015578;28;20150;-75
2022/01/31 09:10:36;;;;;;;48.83;7.38;;;7.10;99.90;;;;;;5017793;28;20029;-74
2022/01/31 09:13:02;;;;;;;47.38;7.25;;;7.10;99.90;;;;;;5025000;28;20514;-75
2022/01/31 09:15:28;;;;;;;48.83;7.10;;;7.10;99.90;;;;;;5015994;28;20029;-74
2022/01/31 09:17:53;;;;;;;46.22;6.40;;;7.20;99.90;;;;;;5022262;28;20485;-74
2022/01/31 09:20:19;;;;;;;36.42;6.07;;;7.20;99.90;;;;;;5019612;28;20578;-74
2022/01/31 09:22:45;;;;;;;46.95;6.63;;;7.20;99.90;;;;;;5021311;28;20029;-73
2022/01/31 09:25:12;;;;;;;44.22;7.32;;;7.20;99.90;;;;;;5031618;28;20532;-74
2022/01/31 09:27:38;;;;;;;50.75;7.20;;;7.20;99.90;;;;;;5031055;28;20021;-75
2022/01/31 09:30:05;;;;;;;49.10;7.18;;;7.30;99.90;;;;;;5031408;28;20037;-74
2022/01/31 09:32:30;;;;;;;50.00;6.93;;;7.30;99.90;;;;;;5032169;28;20030;-74
2022/01/31 09:34:56;;;;;;;45.15;6.97;;;7.30;99.90;;;;;;5048671;28;20029;-73
2022/01/31 09:37:22;;;;;;;48.30;6.53;;;7.40;99.90;;;;;;5050669;28;20013;-74
2022/01/31 09:39:49;;;;;;;47.78;7.18;;;7.40;99.90;;;;;;5028952;28;20036;-73
2022/01/31 09:42:24;;;;;;;50.55;6.65;;;7.40;99.90;;;;;;5011983;28;20068;-74
2022/01/31 09:45:17;;;;;;;51.63;7.43;;;7.40;99.90;;;;;;5018798;28;20029;-73
2022/01/31 09:50:03;;;;;;;47.22;6.20;;;7.40;99.90;;;;;;5021786;28;20033;-73
2022/01/31 09:52:28;;;;;;;43.95;5.97;;;7.50;99.90;;;;;;5005883;28;20120;-73
2022/01/31 09:54:54;;;;;;;51.05;6.78;;;7.50;99.90;;;;;;5016062;28;20117;-73
2022/01/31 09:57:19;;;;;;;32.67;6.25;;;7.60;99.90;;;;;;5027520;28;20029;-73
2022/01/31 09:59:45;;;;;;;52.35;7.32;;;7.60;99.90;;;;;;5022773;28;20017;-73
2022/01/31 10:02:12;;;;;;;46.60;7.28;;;7.60;99.90;;;;;;5018855;28;20049;-73
2022/01/31 10:04:43;;;;;;;49.60;6.93;;;7.60;99.90;;;;;;5017007;28;20022;-73
2022/01/31 10:07:09;;;;;;;51.03;6.22;;;7.50;99.90;;;;;;5020892;28;20022;-73
2022/01/31 10:09:35;;;;;;;43.42;6.47;;;7.50;99.90;;;;;;5006227;28;20025;-74
2022/01/31 10:12:09;;;;;;;52.55;7.00;;;7.50;99.90;;;;;;5022008;28;20052;-73
2022/01/31 10:17:46;;;;;;;50.33;6.65;;;7.30;99.90;;;;;;5024495;28;20359;-73
2022/01/31 10:20:17;;;;;;;46.40;7.07;;;7.30;99.90;;;;;;5017329;28;20029;-74
2022/01/31 10:22:43;;;;;;;56.22;7.75;;;7.30;99.90;;;;;;5001242;28;20018;-73
2022/01/31 10:25:12;;;;;;;56.35;8.05;;;7.30;99.90;;;;;;5021064;28;20400;-73
2022/01/31 10:27:38;;;;;;;49.50;7.90;;;7.40;99.90;;;;;;5016227;28;20042;-73
2022/01/31 10:30:22;;;;;;;57.05;7.78;;;7.40;99.90;;;;;;4998032;28;20033;-73
2022/01/31 10:32:49;;;;;;;49.40;6.97;;;7.40;99.90;;;;;;5024923;28;20092;-73
2022/01/31 10:35:20;;;;;;;46.88;6.90;;;7.40;99.90;;;;;;5025301;28;20029;-73
2022/01/31 10:37:48;;;;;;;47.58;7.65;;;7.40;99.90;;;;;;5019176;28;20025;-74
2022/01/31 10:51:57;;;;;;;38.42;5.88;;;7.40;99.90;;;;;;5030077;28;20399;-72
2022/01/31 10:56:57;;;;;;;48.60;8.00;;;7.40;99.90;;;;;;5009964;28;20113;-73
2022/01/31 10:59:24;;;;;;;51.90;7.45;;;7.40;99.90;;;;;;5018579;28;20049;-72
2022/01/31 11:01:55;;;;;;;54.90;8.07;;;7.40;99.90;;;;;;5029594;28;20072;-73
2022/01/31 11:04:21;;;;;;;53.63;7.45;;;7.40;99.90;;;;;;5023492;28;20026;-74
2022/01/31 11:06:48;;;;;;;47.65;7.50;;;7.50;99.90;;;;;;5017074;28;20041;-74
2022/01/31 11:09:18;;;;;;;52.50;7.32;;;7.50;99.90;;;;;;5018583;28;20469;-74
2022/01/31 11:11:47;;;;;;;56.13;7.28;;;7.50;99.90;;;;;;5017835;28;20479;-73
2022/01/31 11:14:13;;;;;;;63.10;7.70;;;7.50;99.90;;;;;;5022995;28;20017;-74
2022/01/31 11:16:42;;;;;;;55.08;7.70;;;7.50;99.90;;;;;;5013694;28;20037;-73
2022/01/31 11:19:09;;;;;;;57.72;7.53;;;7.50;99.90;;;;;;5017027;28;20049;-73
2022/01/31 11:21:38;;;;;;;52.05;7.90;;;7.40;99.90;;;;;;5009520;28;20093;-74
2022/01/31 11:24:16;;;;;;;52.28;7.72;;;7.30;99.90;;;;;;5021251;28;20407;-74
2022/01/31 11:26:45;;;;;;;61.92;7.60;;;7.10;99.90;;;;;;5016385;28;20399;-73
2022/01/31 11:29:10;;;;;;;58.15;7.93;;;7.00;99.90;;;;;;4999243;28;20128;-74
2022/01/31 11:31:38;;;;;;;53.05;7.75;;;6.90;99.90;;;;;;5019366;28;20464;-73
2022/01/31 11:34:06;;;;;;;55.42;7.97;;;6.80;99.90;;;;;;5015664;28;20029;-73
2022/01/31 11:36:37;;;;;;;51.45;7.07;;;6.70;99.90;;;;;;5020802;28;20113;-73
2022/01/31 11:39:07;;;;;;;52.58;7.63;;;6.60;99.90;;;;;;5018906;28;20521;-74
2022/01/31 11:41:35;;;;;;;54.35;7.78;;;6.60;99.90;;;;;;5010633;28;20168;-74
2022/01/31 11:44:29;;;;;;;56.70;8.00;;;6.50;99.90;;;;;;4992724;28;20368;-73
2022/01/31 11:46:56;;;;;;;60.60;7.90;;;6.50;99.90;;;;;;5012567;28;20368;-73
2022/01/31 11:49:22;;;;;;;71.55;8.95;;;6.50;99.90;;;;;;5015542;28;20033;-73
2022/01/31 11:52:09;;;;;;;66.35;8.55;;;6.50;99.90;;;;;;5039237;28;20041;-73
2022/01/31 11:54:47;;;;;;;65.05;8.77;;;6.50;99.90;;;;;;5028478;28;20053;-74
2022/01/31 11:57:21;;;;;;;60.55;8.85;;;6.50;99.90;;;;;;5031953;28;20033;-73
2022/01/31 11:59:51;;;;;;;58.25;8.63;;;6.50;99.90;;;;;;5049051;28;20041;-74
2022/01/31 12:02:19;;;;;;;64.80;8.38;;;6.50;99.90;;;;;;5048639;28;20025;-74
2022/01/31 12:04:48;;;;;;;68.05;8.93;;;6.50;99.90;;;;;;5048172;28;20056;-74
2022/01/31 12:07:39;;;;;;;68.22;9.55;;;6.60;99.90;;;;;;5032609;28;20033;-74
2022/01/31 12:10:06;;;;;;;57.95;7.97;;;6.70;99.90;;;;;;5028975;28;20130;-74
2022/01/31 12:12:57;;;;;;;66.90;8.35;;;6.70;99.90;;;;;;5012551;28;20437;-74
2022/01/31 12:15:38;;;;;;;62.38;8.93;;;6.70;99.90;;;;;;5016192;28;20029;-73
2022/01/31 12:23:59;;;;;;;64.32;8.85;;;6.80;99.90;;;;;;5013948;28;20143;-74
2022/01/31 12:26:50;;;;;;;65.65;9.65;;;6.80;99.90;;;;;;5013695;28;20038;-74
2022/01/31 12:29:22;;;;;;;68.57;9.18;;;6.90;99.90;;;;;;5009165;28;20026;-74
2022/01/31 12:31:48;;;;;;;71.50;9.52;;;6.90;99.90;;;;;;5021022;28;20041;-74
2022/01/31 12:34:17;;;;;;;71.13;9.43;;;7.00;99.90;;;;;;5013586;28;20070;-74
2022/01/31 12:36:42;;;;;;;75.88;9.32;;;7.00;99.90;;;;;;5018564;28;20021;-73
2022/01/31 12:39:28;;;;;;;66.47;9.05;;;7.00;99.90;;;;;;5022342;28;20372;-73
2022/01/31 12:42:01;;;;;;;56.67;8.05;;;7.00;99.90;;;;;;5006695;28;20060;-73
2022/01/31 12:44:29;;;;;;;71.25;8.90;;;7.00;99.90;;;;;;5020562;28;20030;-74
2022/01/31 12:47:06;;;;;;;59.33;8.98;;;7.00;99.90;;;;;;5018762;28;20491;-74
2022/01/31 12:49:32;;;;;;;62.40;9.65;;;7.00;99.90;;;;;;5021014;28;20456;-74
2022/01/31 12:52:05;;;;;;;66.32;9.20;;;7.10;99.90;;;;;;5024224;28;20185;-74
2022/01/31 12:54:31;;;;;;;64.05;8.55;;;7.10;99.90;;;;;;5018467;28;20034;-73
2022/01/31 12:57:09;;;;;;;54.75;7.63;;;7.10;99.90;;;;;;5015664;28;20036;-74
2022/01/31 12:59:35;;;;;;;53.30;8.75;;;7.10;99.90;;;;;;5020274;28;20025;-74
2022/01/31 13:02:08;;;;;;;66.80;9.23;;;7.20;99.90;;;;;;5014729;28;20105;-74
2022/01/31 13:04:34;;;;;;;56.05;7.97;;;7.20;99.90;;;;;;5023774;28;20021;-74
2022/01/31 13:07:04;;;;;;;58.63;8.75;;;7.20;99.90;;;;;;5023048;28;20274;-74
2022/01/31 13:09:33;;;;;;;57.38;8.07;;;7.20;99.90;;;;;;5018163;28;20521;-74
2022/01/31 13:12:06;;;;;;;52.25;7.78;;;7.20;99.90;;;;;;5023663;28;20043;-74
2022/01/31 13:14:38;;;;;;;57.95;8.48;;;7.10;99.90;;;;;;5019840;28;20121;-74
2022/01/31 13:17:08;;;;;;;62.63;8.80;;;7.00;99.90;;;;;;5005222;28;20018;-73